createdAt,value
2018-02-15T00:00:04.972Z,0.00
2018-02-15T00:01:04.986Z,0.00
2018-02-15T00:02:04.996Z,0.00
2018-02-15T00:03:05.013Z,0.00
2018-02-15T00:04:05.040Z,0.00
2018-02-15T00:05:05.079Z,0.00
2018-02-15T00:06:05.059Z,0.00
2018-02-15T00:07:05.072Z,0.00
2018-02-15T00:08:05.082Z,0.00
2018-02-15T00:09:05.093Z,0.00
2018-02-15T00:10:05.107Z,0.00
2018-02-15T00:11:05.119Z,0.00
2018-02-15T00:12:05.135Z,0.00
2018-02-15T00:13:05.148Z,0.00
2018-02-15T00:14:05.176Z,0.00
2018-02-15T00:15:05.176Z,0.00
2018-02-15T00:16:05.193Z,0.00
2018-02-15T00:17:05.204Z,0.00
2018-02-15T00:18:05.215Z,0.00
2018-02-15T00:19:05.229Z,0.00
2018-02-15T00:20:05.241Z,0.00
2018-02-15T00:21:05.254Z,0.00
2018-02-15T00:22:05.268Z,0.00
2018-02-15T00:23:05.284Z,0.00
2018-02-15T00:24:05.298Z,0.00
2018-02-15T00:25:05.324Z,0.00
2018-02-15T00:26:05.338Z,0.00
2018-02-15T00:27:05.337Z,0.00
2018-02-15T00:28:05.352Z,0.00
2018-02-15T00:29:05.366Z,0.00
2018-02-15T00:30:05.380Z,0.00
2018-02-15T00:31:05.397Z,0.00
2018-02-15T00:32:05.406Z,0.00
2018-02-15T00:33:05.422Z,0.00
2018-02-15T00:34:05.433Z,0.00
2018-02-15T00:35:05.447Z,0.00
2018-02-15T00:36:05.460Z,0.00
2018-02-15T00:37:05.473Z,0.00
2018-02-15T00:38:05.489Z,0.00
2018-02-15T00:39:05.508Z,0.00
2018-02-15T00:40:05.518Z,0.00
2018-02-15T00:41:05.526Z,0.00
2018-02-15T00:42:05.542Z,0.00
2018-02-15T00:43:05.550Z,0.00
2018-02-15T00:44:05.570Z,0.00
2018-02-15T00:45:05.585Z,0.00
2018-02-15T00:46:05.598Z,0.00
2018-02-15T00:47:05.610Z,0.00
2018-02-15T00:48:05.625Z,0.00
2018-02-15T00:49:05.675Z,0.00
2018-02-15T00:50:05.650Z,0.00
2018-02-15T00:51:05.665Z,0.00
2018-02-15T00:52:05.674Z,0.00
2018-02-15T00:53:05.695Z,0.00
2018-02-15T00:54:05.704Z,0.00
2018-02-15T00:55:05.723Z,0.00
2018-02-15T00:56:05.731Z,0.00
2018-02-15T00:57:05.746Z,0.00
2018-02-15T00:58:05.759Z,0.00
2018-02-15T00:59:05.767Z,0.00
2018-02-15T01:00:05.782Z,0.00
2018-02-15T01:01:05.803Z,0.00
2018-02-15T01:02:05.813Z,0.00
2018-02-15T01:03:05.842Z,0.00
2018-02-15T01:04:05.841Z,0.00
2018-02-15T01:05:05.859Z,0.00
2018-02-15T01:06:05.868Z,0.00
2018-02-15T01:07:05.877Z,0.00
2018-02-15T01:08:05.896Z,0.00
2018-02-15T01:09:05.910Z,0.00
2018-02-15T01:10:05.933Z,0.00
2018-02-15T01:11:05.936Z,0.00
2018-02-15T01:12:05.961Z,0.00
2018-02-15T01:13:05.963Z,0.00
2018-02-15T01:14:05.976Z,0.00
2018-02-15T01:15:05.990Z,0.00
2018-02-15T01:16:06.005Z,0.00
2018-02-15T01:17:06.021Z,0.00
2018-02-15T01:18:06.031Z,0.00
2018-02-15T01:19:06.047Z,0.00
2018-02-15T01:20:06.061Z,0.00
2018-02-15T01:21:06.074Z,0.00
2018-02-15T01:22:06.088Z,0.00
2018-02-15T01:23:06.100Z,0.00
2018-02-15T01:24:06.113Z,0.00
2018-02-15T01:25:06.128Z,0.00
2018-02-15T01:26:06.145Z,0.00
2018-02-15T01:27:06.158Z,0.00
2018-02-15T01:28:06.169Z,0.00
2018-02-15T01:29:06.224Z,0.00
2018-02-15T01:30:06.194Z,0.00
2018-02-15T01:31:06.211Z,0.00
2018-02-15T01:32:06.230Z,0.00
2018-02-15T01:33:06.240Z,0.00
2018-02-15T01:34:06.251Z,0.00
2018-02-15T01:35:06.264Z,0.00
2018-02-15T01:36:06.282Z,0.00
2018-02-15T01:37:06.300Z,0.00
2018-02-15T01:38:06.313Z,0.00
2018-02-15T01:39:06.323Z,0.00
2018-02-15T01:40:06.334Z,0.00
2018-02-15T01:41:06.350Z,0.00
2018-02-15T01:42:06.366Z,0.00
2018-02-15T01:43:06.376Z,0.00
2018-02-15T01:44:06.393Z,0.00
2018-02-15T01:45:06.405Z,0.00
2018-02-15T01:46:06.417Z,0.00
2018-02-15T01:47:06.431Z,0.00
2018-02-15T01:48:06.445Z,0.00
2018-02-15T01:49:06.489Z,0.00
2018-02-15T01:50:06.476Z,0.00
2018-02-15T01:51:06.486Z,0.00
2018-02-15T01:52:06.503Z,0.00
2018-02-15T01:53:06.516Z,0.00
2018-02-15T01:54:06.526Z,0.00
2018-02-15T01:55:06.543Z,0.00
2018-02-15T01:56:06.556Z,0.00
2018-02-15T01:57:06.570Z,0.00
2018-02-15T01:58:06.580Z,0.00
2018-02-15T01:59:06.595Z,0.00
2018-02-15T02:00:06.607Z,0.00
2018-02-15T02:01:06.624Z,0.00
2018-02-15T02:02:06.644Z,0.00
2018-02-15T02:03:06.657Z,0.00
2018-02-15T02:04:06.688Z,0.00
2018-02-15T02:05:06.682Z,0.00
2018-02-15T02:06:06.693Z,0.00
2018-02-15T02:07:06.708Z,0.00
2018-02-15T02:08:06.723Z,0.00
2018-02-15T02:09:06.737Z,0.00
2018-02-15T02:10:06.749Z,0.00
2018-02-15T02:11:06.768Z,0.00
2018-02-15T02:12:06.776Z,0.00
2018-02-15T02:13:06.792Z,0.00
2018-02-15T02:14:06.808Z,0.00
2018-02-15T02:15:06.822Z,0.00
2018-02-15T02:16:06.838Z,0.00
2018-02-15T02:17:06.849Z,0.00
2018-02-15T02:18:06.859Z,0.00
2018-02-15T02:19:06.878Z,0.00
2018-02-15T02:20:06.888Z,0.00
2018-02-15T02:21:06.904Z,0.00
2018-02-15T02:22:06.919Z,0.00
2018-02-15T02:23:06.930Z,0.00
2018-02-15T02:24:06.943Z,0.00
2018-02-15T02:25:06.960Z,0.00
2018-02-15T02:26:06.970Z,0.00
2018-02-15T02:27:06.987Z,0.00
2018-02-15T02:28:07.001Z,0.00
2018-02-15T02:29:07.012Z,0.00
2018-02-15T02:30:07.029Z,0.00
2018-02-15T02:31:07.042Z,0.00
2018-02-15T02:32:07.054Z,0.00
2018-02-15T02:33:07.069Z,0.00
2018-02-15T02:34:07.085Z,0.00
2018-02-15T02:35:07.161Z,0.00
2018-02-15T02:36:07.112Z,0.00
2018-02-15T02:37:07.130Z,0.00
2018-02-15T02:38:07.145Z,0.00
2018-02-15T02:39:07.153Z,0.00
2018-02-15T02:40:07.166Z,0.00
2018-02-15T02:41:07.184Z,0.00
2018-02-15T02:42:07.196Z,0.00
2018-02-15T02:43:07.208Z,0.00
2018-02-15T02:44:07.221Z,0.00
2018-02-15T02:45:07.238Z,0.00
2018-02-15T02:46:07.250Z,0.00
2018-02-15T02:47:07.267Z,0.00
2018-02-15T02:48:07.278Z,0.00
2018-02-15T02:49:07.293Z,0.00
2018-02-15T02:50:07.309Z,0.00
2018-02-15T02:51:07.321Z,0.00
2018-02-15T02:52:07.334Z,0.00
2018-02-15T02:53:07.352Z,0.00
2018-02-15T02:54:07.361Z,0.00
2018-02-15T02:55:07.379Z,0.00
2018-02-15T02:56:07.393Z,0.00
2018-02-15T02:57:07.404Z,0.00
2018-02-15T02:58:07.418Z,0.00
2018-02-15T02:59:07.440Z,0.00
2018-02-15T03:00:07.456Z,0.00
2018-02-15T03:01:07.467Z,0.00
2018-02-15T03:02:07.472Z,0.00
2018-02-15T03:03:07.496Z,0.00
2018-02-15T03:04:07.513Z,0.00
2018-02-15T03:05:07.514Z,0.00
2018-02-15T03:06:07.529Z,0.00
2018-02-15T03:07:07.544Z,0.00
2018-02-15T03:08:07.557Z,0.00
2018-02-15T03:09:07.574Z,0.00
2018-02-15T03:10:07.586Z,0.00
2018-02-15T03:11:07.602Z,0.00
2018-02-15T03:12:07.613Z,0.00
2018-02-15T03:13:07.633Z,0.00
2018-02-15T03:14:07.641Z,0.00
2018-02-15T03:15:07.656Z,0.00
2018-02-15T03:16:07.670Z,0.00
2018-02-15T03:17:07.684Z,0.00
2018-02-15T03:18:07.701Z,0.00
2018-02-15T03:19:07.717Z,0.00
2018-02-15T03:20:07.729Z,0.00
2018-02-15T03:21:07.740Z,0.00
2018-02-15T03:22:07.754Z,0.00
2018-02-15T03:23:07.774Z,0.00
2018-02-15T03:24:07.786Z,0.00
2018-02-15T03:25:07.800Z,0.00
2018-02-15T03:26:07.809Z,0.00
2018-02-15T03:27:07.825Z,0.00
2018-02-15T03:28:07.837Z,0.00
2018-02-15T03:29:07.853Z,0.00
2018-02-15T03:30:07.874Z,0.00
2018-02-15T03:31:07.882Z,0.00
2018-02-15T03:32:07.896Z,0.00
2018-02-15T03:33:07.912Z,0.00
2018-02-15T03:34:07.981Z,0.00
2018-02-15T03:35:07.938Z,0.00
2018-02-15T03:36:07.953Z,0.00
2018-02-15T03:37:07.964Z,0.00
2018-02-15T03:38:07.981Z,0.00
2018-02-15T03:39:07.994Z,0.00
2018-02-15T03:40:08.009Z,0.00
2018-02-15T03:41:08.023Z,0.00
2018-02-15T03:42:08.037Z,0.00
2018-02-15T03:43:08.048Z,0.00
2018-02-15T03:44:08.059Z,0.00
2018-02-15T03:45:08.077Z,0.00
2018-02-15T03:46:08.091Z,0.00
2018-02-15T03:47:08.108Z,0.00
2018-02-15T03:48:08.122Z,0.00
2018-02-15T03:49:08.134Z,0.00
2018-02-15T03:50:08.148Z,0.00
2018-02-15T03:51:08.164Z,0.00
2018-02-15T03:52:08.177Z,0.00
2018-02-15T03:53:08.192Z,0.00
2018-02-15T03:54:08.204Z,0.00
2018-02-15T03:55:08.225Z,0.00
2018-02-15T03:56:08.233Z,0.00
2018-02-15T03:57:08.248Z,0.00
2018-02-15T03:58:08.257Z,0.00
2018-02-15T03:59:08.280Z,0.00
2018-02-15T04:00:08.293Z,0.00
2018-02-15T04:01:08.305Z,0.00
2018-02-15T04:02:08.325Z,0.00
2018-02-15T04:03:08.336Z,0.00
2018-02-15T04:04:08.350Z,0.00
2018-02-15T04:05:08.363Z,0.00
2018-02-15T04:06:08.374Z,0.00
2018-02-15T04:07:08.389Z,0.00
2018-02-15T04:08:08.411Z,0.00
2018-02-15T04:09:08.418Z,0.00
2018-02-15T04:10:08.436Z,0.00
2018-02-15T04:11:08.443Z,0.00
2018-02-15T04:12:08.460Z,0.00
2018-02-15T04:13:08.478Z,0.00
2018-02-15T04:14:08.488Z,0.00
2018-02-15T04:15:08.502Z,0.00
2018-02-15T04:16:08.530Z,0.00
2018-02-15T04:17:08.534Z,0.00
2018-02-15T04:18:08.545Z,0.00
2018-02-15T04:19:08.559Z,0.00
2018-02-15T04:20:08.572Z,0.00
2018-02-15T04:21:08.589Z,0.00
2018-02-15T04:22:08.602Z,0.00
2018-02-15T04:23:08.619Z,0.00
2018-02-15T04:24:08.629Z,0.00
2018-02-15T04:25:08.643Z,0.00
2018-02-15T04:26:08.654Z,0.00
2018-02-15T04:27:08.675Z,0.00
2018-02-15T04:28:08.684Z,0.00
2018-02-15T04:29:08.705Z,0.00
2018-02-15T04:30:08.715Z,0.00
2018-02-15T04:31:08.730Z,0.00
2018-02-15T04:32:08.748Z,0.00
2018-02-15T04:33:08.757Z,0.00
2018-02-15T04:34:08.769Z,0.00
2018-02-15T04:35:08.786Z,0.00
2018-02-15T04:36:08.800Z,0.00
2018-02-15T04:37:08.816Z,0.00
2018-02-15T04:38:08.831Z,0.00
2018-02-15T04:39:08.843Z,0.00
2018-02-15T04:40:08.854Z,0.00
2018-02-15T04:41:08.867Z,0.00
2018-02-15T04:42:08.886Z,0.00
2018-02-15T04:43:08.899Z,0.00
2018-02-15T04:44:08.915Z,0.00
2018-02-15T04:45:08.933Z,0.00
2018-02-15T04:46:08.943Z,0.00
2018-02-15T04:47:08.959Z,0.00
2018-02-15T04:48:08.971Z,0.00
2018-02-15T04:49:08.987Z,0.00
2018-02-15T04:50:09.001Z,0.00
2018-02-15T04:51:09.022Z,0.00
2018-02-15T04:52:09.034Z,0.00
2018-02-15T04:53:09.041Z,0.00
2018-02-15T04:54:09.059Z,0.00
2018-02-15T04:55:09.075Z,0.00
2018-02-15T04:56:09.084Z,0.00
2018-02-15T04:57:09.106Z,0.00
2018-02-15T04:58:09.129Z,0.00
2018-02-15T04:59:09.129Z,0.00
2018-02-15T05:00:09.145Z,0.00
2018-02-15T05:01:09.162Z,0.00
2018-02-15T05:02:09.174Z,0.00
2018-02-15T05:03:09.186Z,0.00
2018-02-15T05:04:09.201Z,0.00
2018-02-15T05:05:09.221Z,0.00
2018-02-15T05:06:09.230Z,0.00
2018-02-15T05:07:09.247Z,0.00
2018-02-15T05:08:09.259Z,0.00
2018-02-15T05:09:09.275Z,0.00
2018-02-15T05:10:09.291Z,0.00
2018-02-15T05:11:09.308Z,0.00
2018-02-15T05:12:09.317Z,0.00
2018-02-15T05:13:09.330Z,0.00
2018-02-15T05:14:09.342Z,0.00
2018-02-15T05:15:09.358Z,0.00
2018-02-15T05:16:09.381Z,0.00
2018-02-15T05:17:09.389Z,0.00
2018-02-15T05:18:09.403Z,0.00
2018-02-15T05:19:09.418Z,0.00
2018-02-15T05:20:09.479Z,0.00
2018-02-15T05:21:09.449Z,0.00
2018-02-15T05:22:09.455Z,0.00
2018-02-15T05:23:09.472Z,0.00
2018-02-15T05:24:09.488Z,0.00
2018-02-15T05:25:09.506Z,0.00
2018-02-15T05:26:09.519Z,0.00
2018-02-15T05:27:09.530Z,0.00
2018-02-15T05:28:09.543Z,0.00
2018-02-15T05:29:09.558Z,0.00
2018-02-15T05:30:09.572Z,0.00
2018-02-15T05:31:09.586Z,0.00
2018-02-15T05:32:09.600Z,0.00
2018-02-15T05:33:09.615Z,0.00
2018-02-15T05:34:09.632Z,0.00
2018-02-15T05:35:09.643Z,0.00
2018-02-15T05:36:09.658Z,0.00
2018-02-15T05:37:09.671Z,0.00
2018-02-15T05:38:09.693Z,0.00
2018-02-15T05:39:09.700Z,0.00
2018-02-15T05:40:09.715Z,0.00
2018-02-15T05:41:09.729Z,0.00
2018-02-15T05:42:09.753Z,0.00
2018-02-15T05:43:09.756Z,0.00
2018-02-15T05:44:09.794Z,0.00
2018-02-15T05:45:09.782Z,0.00
2018-02-15T05:46:09.800Z,0.00
2018-02-15T05:47:09.816Z,0.00
2018-02-15T05:48:09.834Z,0.00
2018-02-15T05:49:09.840Z,0.00
2018-02-15T05:50:09.858Z,0.00
2018-02-15T05:51:09.868Z,0.00
2018-02-15T05:52:09.876Z,0.00
2018-02-15T05:53:09.943Z,0.00
2018-02-15T05:54:09.907Z,0.00
2018-02-15T05:55:09.940Z,0.00
2018-02-15T05:56:09.940Z,0.00
2018-02-15T05:57:09.955Z,0.00
2018-02-15T05:58:09.965Z,0.00
2018-02-15T05:59:09.985Z,0.00
2018-02-15T06:00:09.999Z,0.00
2018-02-15T06:01:10.011Z,0.00
2018-02-15T06:02:10.023Z,0.00
2018-02-15T06:03:10.048Z,0.00
2018-02-15T06:04:10.053Z,0.00
2018-02-15T06:05:10.095Z,0.00
2018-02-15T06:06:10.080Z,0.00
2018-02-15T06:07:10.098Z,0.00
2018-02-15T06:08:10.103Z,0.00
2018-02-15T06:09:10.125Z,0.00
2018-02-15T06:10:10.136Z,0.00
2018-02-15T06:11:10.152Z,0.00
2018-02-15T06:12:10.164Z,0.00
2018-02-15T06:13:10.180Z,0.00
2018-02-15T06:14:10.198Z,0.00
2018-02-15T06:15:10.212Z,0.00
2018-02-15T06:16:10.220Z,0.00
2018-02-15T06:17:10.256Z,0.00
2018-02-15T06:18:10.249Z,0.00
2018-02-15T06:19:10.265Z,0.00
2018-02-15T06:20:10.284Z,0.00
2018-02-15T06:21:10.294Z,0.00
2018-02-15T06:22:10.305Z,0.00
2018-02-15T06:23:10.321Z,0.00
2018-02-15T06:24:10.336Z,0.00
2018-02-15T06:25:10.352Z,0.00
2018-02-15T06:26:10.365Z,0.00
2018-02-15T06:27:10.379Z,0.00
2018-02-15T06:28:10.406Z,0.00
2018-02-15T06:29:10.407Z,4.00
2018-02-15T06:30:10.420Z,4.00
2018-02-15T06:31:10.434Z,4.00
2018-02-15T06:32:10.450Z,4.00
2018-02-15T06:33:10.459Z,4.00
2018-02-15T06:34:10.472Z,4.00
2018-02-15T06:35:10.488Z,4.00
2018-02-15T06:36:10.506Z,0.00
2018-02-15T06:37:10.521Z,4.00
2018-02-15T06:38:10.540Z,4.00
2018-02-15T06:39:10.550Z,4.00
2018-02-15T06:40:10.562Z,4.00
2018-02-15T06:41:10.578Z,4.00
2018-02-15T06:42:10.592Z,4.00
2018-02-15T06:43:10.604Z,4.00
2018-02-15T06:44:10.620Z,8.00
2018-02-15T06:45:10.636Z,8.00
2018-02-15T06:46:10.648Z,4.00
2018-02-15T06:47:10.660Z,8.00
2018-02-15T06:48:10.679Z,8.00
2018-02-15T06:49:10.689Z,8.00
2018-02-15T06:50:10.715Z,8.00
2018-02-15T06:51:10.716Z,8.00
2018-02-15T06:52:10.733Z,12.00
2018-02-15T06:53:10.755Z,8.00
2018-02-15T06:54:10.766Z,12.00
2018-02-15T06:55:10.790Z,8.00
2018-02-15T06:56:10.795Z,12.00
2018-02-15T06:57:10.807Z,12.00
2018-02-15T06:58:10.819Z,12.00
2018-02-15T06:59:10.830Z,16.00
2018-02-15T07:00:10.847Z,16.00
2018-02-15T07:01:10.859Z,16.00
2018-02-15T07:02:10.876Z,16.00
2018-02-15T07:03:10.886Z,16.00
2018-02-15T07:04:10.902Z,20.00
2018-02-15T07:05:10.917Z,16.00
2018-02-15T07:06:10.937Z,20.00
2018-02-15T07:07:10.937Z,20.00
2018-02-15T07:08:10.963Z,20.00
2018-02-15T07:09:10.981Z,20.00
2018-02-15T07:10:10.988Z,20.00
2018-02-15T07:11:11.002Z,24.00
2018-02-15T07:12:11.018Z,28.00
2018-02-15T07:13:11.034Z,28.00
2018-02-15T07:14:11.045Z,28.00
2018-02-15T07:15:11.067Z,28.00
2018-02-15T07:16:11.072Z,28.00
2018-02-15T07:17:11.091Z,28.00
2018-02-15T07:18:11.099Z,32.00
2018-02-15T07:19:11.116Z,32.00
2018-02-15T07:20:11.135Z,32.00
2018-02-15T07:21:11.146Z,32.00
2018-02-15T07:22:11.170Z,32.00
2018-02-15T07:23:11.179Z,36.00
2018-02-15T07:24:11.188Z,36.00
2018-02-15T07:25:11.200Z,36.00
2018-02-15T07:26:11.216Z,32.00
2018-02-15T07:27:11.231Z,32.00
2018-02-15T07:28:11.245Z,36.00
2018-02-15T07:29:11.266Z,36.00
2018-02-15T07:30:11.274Z,32.00
2018-02-15T07:31:11.285Z,36.00
2018-02-15T07:32:11.299Z,36.00
2018-02-15T07:33:11.310Z,44.00
2018-02-15T07:34:11.334Z,44.00
2018-02-15T07:35:11.348Z,52.00
2018-02-15T07:36:11.373Z,56.00
2018-02-15T07:37:11.379Z,60.00
2018-02-15T07:38:11.394Z,64.00
2018-02-15T07:39:11.399Z,64.00
2018-02-15T07:40:11.410Z,64.00
2018-02-15T07:41:11.428Z,72.00
2018-02-15T07:42:11.437Z,72.00
2018-02-15T07:43:11.466Z,72.00
2018-02-15T07:44:11.500Z,76.00
2018-02-15T07:45:11.481Z,80.00
2018-02-15T07:46:11.494Z,80.00
2018-02-15T07:47:11.506Z,84.00
2018-02-15T07:48:11.534Z,88.00
2018-02-15T07:49:11.543Z,92.00
2018-02-15T07:50:11.555Z,96.00
2018-02-15T07:51:11.569Z,96.00
2018-02-15T07:52:11.584Z,100.00
2018-02-15T07:53:11.596Z,100.00
2018-02-15T07:54:11.612Z,100.00
2018-02-15T07:55:11.624Z,104.00
2018-02-15T07:56:11.640Z,104.00
2018-02-15T07:57:11.657Z,104.00
2018-02-15T07:58:11.677Z,108.00
2018-02-15T07:59:11.682Z,112.00
2018-02-15T08:00:11.700Z,116.00
2018-02-15T08:01:11.706Z,120.00
2018-02-15T08:02:11.732Z,128.00
2018-02-15T08:03:11.740Z,132.00
2018-02-15T08:04:11.759Z,136.00
2018-02-15T08:05:11.770Z,144.00
2018-02-15T08:06:11.777Z,144.00
2018-02-15T08:07:11.797Z,148.00
2018-02-15T08:08:11.812Z,144.00
2018-02-15T08:09:11.825Z,144.00
2018-02-15T08:10:11.839Z,144.00
2018-02-15T08:11:11.856Z,148.00
2018-02-15T08:12:11.866Z,144.00
2018-02-15T08:13:11.880Z,144.00
2018-02-15T08:14:11.894Z,144.00
2018-02-15T08:15:11.910Z,144.00
2018-02-15T08:16:11.927Z,144.00
2018-02-15T08:17:11.940Z,148.00
2018-02-15T08:18:11.954Z,152.00
2018-02-15T08:19:11.964Z,160.00
2018-02-15T08:20:11.988Z,160.00
2018-02-15T08:21:11.994Z,160.00
2018-02-15T08:22:12.013Z,156.00
2018-02-15T08:23:12.039Z,156.00
2018-02-15T08:24:12.044Z,152.00
2018-02-15T08:25:12.049Z,144.00
2018-02-15T08:26:12.070Z,140.00
2018-02-15T08:27:12.079Z,144.00
2018-02-15T08:28:12.098Z,148.00
2018-02-15T08:29:12.103Z,144.00
2018-02-15T08:30:12.123Z,144.00
2018-02-15T08:31:12.136Z,144.00
2018-02-15T08:32:12.152Z,140.00
2018-02-15T08:33:12.164Z,140.00
2018-02-15T08:34:12.178Z,140.00
2018-02-15T08:35:12.239Z,144.00
2018-02-15T08:36:12.202Z,152.00
2018-02-15T08:37:12.218Z,160.00
2018-02-15T08:38:12.237Z,164.00
2018-02-15T08:39:12.267Z,168.00
2018-02-15T08:40:12.266Z,172.00
2018-02-15T08:41:12.282Z,180.00
2018-02-15T08:42:12.295Z,184.00
2018-02-15T08:43:12.306Z,184.00
2018-02-15T08:44:12.325Z,192.00
2018-02-15T08:45:12.333Z,196.00
2018-02-15T08:46:12.348Z,212.00
2018-02-15T08:47:12.363Z,220.00
2018-02-15T08:48:12.376Z,228.00
2018-02-15T08:49:12.396Z,240.00
2018-02-15T08:50:12.404Z,260.00
2018-02-15T08:51:12.416Z,276.00
2018-02-15T08:52:12.482Z,292.00
2018-02-15T08:53:12.450Z,300.00
2018-02-15T08:54:12.460Z,308.00
2018-02-15T08:55:12.470Z,316.00
2018-02-15T08:56:12.488Z,320.00
2018-02-15T08:57:12.504Z,320.00
2018-02-15T08:58:12.515Z,312.00
2018-02-15T08:59:12.528Z,312.00
2018-02-15T09:00:12.545Z,316.00
2018-02-15T09:01:12.561Z,320.00
2018-02-15T09:02:12.570Z,324.00
2018-02-15T09:03:12.589Z,328.00
2018-02-15T09:04:12.606Z,340.00
2018-02-15T09:05:12.616Z,348.00
2018-02-15T09:06:12.630Z,356.00
2018-02-15T09:07:12.654Z,360.00
2018-02-15T09:08:12.659Z,356.00
2018-02-15T09:09:12.673Z,344.00
2018-02-15T09:10:12.685Z,336.00
2018-02-15T09:11:12.702Z,324.00
2018-02-15T09:12:12.758Z,312.00
2018-02-15T09:13:12.732Z,304.00
2018-02-15T09:14:12.744Z,304.00
2018-02-15T09:15:12.763Z,312.00
2018-02-15T09:16:12.772Z,324.00
2018-02-15T09:17:12.789Z,328.00
2018-02-15T09:18:12.801Z,332.00
2018-02-15T09:19:12.815Z,332.00
2018-02-15T09:20:12.830Z,324.00
2018-02-15T09:21:12.845Z,308.00
2018-02-15T09:22:12.861Z,304.00
2018-02-15T09:23:12.872Z,304.00
2018-02-15T09:24:12.907Z,304.00
2018-02-15T09:25:12.901Z,312.00
2018-02-15T09:26:12.915Z,336.00
2018-02-15T09:27:12.931Z,316.00
2018-02-15T09:28:12.950Z,304.00
2018-02-15T09:29:12.970Z,324.00
2018-02-15T09:30:12.975Z,296.00
2018-02-15T09:31:12.991Z,280.00
2018-02-15T09:32:13.004Z,296.00
2018-02-15T09:33:13.018Z,284.00
2018-02-15T09:34:13.031Z,264.00
2018-02-15T09:35:13.045Z,268.00
2018-02-15T09:36:13.084Z,264.00
2018-02-15T09:37:13.078Z,252.00
2018-02-15T09:38:13.087Z,248.00
2018-02-15T09:39:13.107Z,248.00
2018-02-15T09:40:13.129Z,252.00
2018-02-15T09:41:13.135Z,256.00
2018-02-15T09:42:13.149Z,260.00
2018-02-15T09:43:13.167Z,268.00
2018-02-15T09:44:13.179Z,252.00
2018-02-15T09:45:13.195Z,248.00
2018-02-15T09:46:13.207Z,256.00
2018-02-15T09:47:13.222Z,272.00
2018-02-15T09:48:13.245Z,296.00
2018-02-15T09:49:13.269Z,296.00
2018-02-15T09:50:13.267Z,280.00
2018-02-15T09:51:13.280Z,264.00
2018-02-15T09:52:13.296Z,280.00
2018-02-15T09:53:13.313Z,292.00
2018-02-15T09:54:13.322Z,292.00
2018-02-15T09:55:13.341Z,292.00
2018-02-15T09:56:13.356Z,276.00
2018-02-15T09:57:13.366Z,276.00
2018-02-15T09:58:13.385Z,288.00
2018-02-15T09:59:13.401Z,300.00
2018-02-15T10:00:13.416Z,316.00
2018-02-15T10:01:13.437Z,336.00
2018-02-15T10:02:13.441Z,336.00
2018-02-15T10:03:13.458Z,328.00
2018-02-15T10:04:13.471Z,320.00
2018-02-15T10:05:13.486Z,324.00
2018-02-15T10:06:13.495Z,328.00
2018-02-15T10:07:13.523Z,336.00
2018-02-15T10:08:13.532Z,328.00
2018-02-15T10:09:13.549Z,308.00
2018-02-15T10:10:13.613Z,304.00
2018-02-15T10:11:13.575Z,316.00
2018-02-15T10:12:13.590Z,312.00
2018-02-15T10:13:13.605Z,312.00
2018-02-15T10:14:13.616Z,324.00
2018-02-15T10:15:13.641Z,316.00
2018-02-15T10:16:13.653Z,304.00
2018-02-15T10:17:13.663Z,316.00
2018-02-15T10:18:13.676Z,344.00
2018-02-15T10:19:13.695Z,352.00
2018-02-15T10:20:13.714Z,360.00
2018-02-15T10:21:13.741Z,360.00
2018-02-15T10:22:13.740Z,360.00
2018-02-15T10:23:13.764Z,372.00
2018-02-15T10:24:13.770Z,368.00
2018-02-15T10:25:13.816Z,352.00
2018-02-15T10:26:13.798Z,332.00
2018-02-15T10:27:13.815Z,324.00
2018-02-15T10:28:13.833Z,324.00
2018-02-15T10:29:13.845Z,344.00
2018-02-15T10:30:13.856Z,360.00
2018-02-15T10:31:13.869Z,364.00
2018-02-15T10:32:13.882Z,356.00
2018-02-15T10:33:13.909Z,352.00
2018-02-15T10:34:13.923Z,344.00
2018-02-15T10:35:13.942Z,356.00
2018-02-15T10:36:13.949Z,356.00
2018-02-15T10:37:13.961Z,360.00
2018-02-15T10:38:13.978Z,360.00
2018-02-15T10:39:13.996Z,344.00
2018-02-15T10:40:14.009Z,360.00
2018-02-15T10:41:14.030Z,388.00
2018-02-15T10:42:14.043Z,384.00
2018-02-15T10:43:14.051Z,376.00
2018-02-15T10:44:14.068Z,376.00
2018-02-15T10:45:14.126Z,380.00
2018-02-15T10:46:14.097Z,400.00
2018-02-15T10:47:14.115Z,384.00
2018-02-15T10:48:14.133Z,336.00
2018-02-15T10:49:14.144Z,332.00
2018-02-15T10:50:14.161Z,352.00
2018-02-15T10:51:14.174Z,360.00
2018-02-15T10:52:14.189Z,356.00
2018-02-15T10:53:14.213Z,368.00
2018-02-15T10:54:14.223Z,388.00
2018-02-15T10:55:14.233Z,364.00
2018-02-15T10:56:14.250Z,360.00
2018-02-15T10:57:14.285Z,400.00
2018-02-15T10:58:14.279Z,404.00
2018-02-15T10:59:14.297Z,364.00
2018-02-15T11:00:14.308Z,348.00
2018-02-15T11:01:14.328Z,348.00
2018-02-15T11:02:14.346Z,340.00
2018-02-15T11:03:14.357Z,364.00
2018-02-15T11:04:14.376Z,360.00
2018-02-15T11:05:14.384Z,356.00
2018-02-15T11:06:14.402Z,376.00
2018-02-15T11:07:14.564Z,408.00
2018-02-15T11:08:14.433Z,392.00
2018-02-15T11:09:14.448Z,424.00
2018-02-15T11:10:14.457Z,408.00
2018-02-15T11:11:14.475Z,340.00
2018-02-15T11:12:14.491Z,336.00
2018-02-15T11:13:14.511Z,356.00
2018-02-15T11:14:14.521Z,380.00
2018-02-15T11:15:14.549Z,356.00
2018-02-15T11:16:14.558Z,304.00
2018-02-15T11:17:14.568Z,252.00
2018-02-15T11:18:14.586Z,216.00
2018-02-15T11:19:14.597Z,220.00
2018-02-15T11:20:14.616Z,256.00
2018-02-15T11:21:14.630Z,252.00
2018-02-15T11:22:14.646Z,252.00
2018-02-15T11:23:14.657Z,240.00
2018-02-15T11:24:14.715Z,220.00
2018-02-15T11:25:14.689Z,232.00
2018-02-15T11:26:14.701Z,244.00
2018-02-15T11:27:14.735Z,232.00
2018-02-15T11:28:14.735Z,216.00
2018-02-15T11:29:14.791Z,208.00
2018-02-15T11:30:14.760Z,196.00
2018-02-15T11:31:14.780Z,200.00
2018-02-15T11:32:14.793Z,236.00
2018-02-15T11:33:14.809Z,248.00
2018-02-15T11:34:14.821Z,216.00
2018-02-15T11:35:14.836Z,204.00
2018-02-15T11:36:14.853Z,200.00
2018-02-15T11:37:14.867Z,220.00
2018-02-15T11:38:14.886Z,224.00
2018-02-15T11:39:14.894Z,228.00
2018-02-15T11:40:14.914Z,232.00
2018-02-15T11:41:14.923Z,236.00
2018-02-15T11:42:14.941Z,228.00
2018-02-15T11:43:14.952Z,280.00
2018-02-15T11:44:14.973Z,320.00
2018-02-15T11:45:14.984Z,296.00
2018-02-15T11:46:15.001Z,312.00
2018-02-15T11:47:15.018Z,344.00
2018-02-15T11:48:15.053Z,424.00
2018-02-15T11:49:15.040Z,492.00
2018-02-15T11:50:15.058Z,440.00
2018-02-15T11:51:15.095Z,464.00
2018-02-15T11:52:15.087Z,492.00
2018-02-15T11:53:15.100Z,448.00
2018-02-15T11:54:15.112Z,396.00
2018-02-15T11:55:15.128Z,392.00
2018-02-15T11:56:15.173Z,360.00
2018-02-15T11:57:15.163Z,388.00
2018-02-15T11:58:15.178Z,372.00
2018-02-15T11:59:15.196Z,340.00
2018-02-15T12:00:15.204Z,304.00
2018-02-15T12:01:15.219Z,324.00
2018-02-15T12:02:15.232Z,364.00
2018-02-15T12:03:15.242Z,352.00
2018-02-15T12:04:15.259Z,392.00
2018-02-15T12:05:15.276Z,432.00
2018-02-15T12:06:15.294Z,432.00
2018-02-15T12:07:15.302Z,400.00
2018-02-15T12:08:15.318Z,420.00
2018-02-15T12:09:15.342Z,428.00
2018-02-15T12:10:15.350Z,448.00
2018-02-15T12:11:15.363Z,456.00
2018-02-15T12:12:15.391Z,472.00
2018-02-15T12:13:15.391Z,428.00
2018-02-15T12:14:15.406Z,424.00
2018-02-15T12:15:15.426Z,416.00
2018-02-15T12:16:15.436Z,452.00
2018-02-15T12:17:15.452Z,472.00
2018-02-15T12:18:15.472Z,452.00
2018-02-15T12:19:15.477Z,440.00
2018-02-15T12:20:15.493Z,444.00
2018-02-15T12:21:15.544Z,416.00
2018-02-15T12:22:15.529Z,404.00
2018-02-15T12:23:15.541Z,408.00
2018-02-15T12:24:15.557Z,416.00
2018-02-15T12:25:15.583Z,396.00
2018-02-15T12:26:15.582Z,412.00
2018-02-15T12:27:15.598Z,444.00
2018-02-15T12:28:15.614Z,464.00
2018-02-15T12:29:15.628Z,484.00
2018-02-15T12:30:15.651Z,492.00
2018-02-15T12:31:15.655Z,512.00
2018-02-15T12:32:15.668Z,532.00
2018-02-15T12:33:15.685Z,520.00
2018-02-15T12:34:15.703Z,504.00
2018-02-15T12:35:15.721Z,456.00
2018-02-15T12:36:15.731Z,452.00
2018-02-15T12:37:15.761Z,468.00
2018-02-15T12:38:15.758Z,508.00
2018-02-15T12:39:15.775Z,564.00
2018-02-15T12:40:15.792Z,580.00
2018-02-15T12:41:15.850Z,512.00
2018-02-15T12:42:15.820Z,472.00
2018-02-15T12:43:15.840Z,460.00
2018-02-15T12:44:15.846Z,448.00
2018-02-15T12:45:15.864Z,396.00
2018-02-15T12:46:15.874Z,372.00
2018-02-15T12:47:15.895Z,372.00
2018-02-15T12:48:15.910Z,384.00
2018-02-15T12:49:15.938Z,396.00
2018-02-15T12:50:15.942Z,392.00
2018-02-15T12:51:15.951Z,404.00
2018-02-15T12:52:15.982Z,416.00
2018-02-15T12:53:15.981Z,388.00
2018-02-15T12:54:16.017Z,352.00
2018-02-15T12:55:16.010Z,356.00
2018-02-15T12:56:16.034Z,360.00